sensor_id;sensor_type;location;lat;lon;timestamp;pressure;altitude;pressure_sealevel;temperature;humidity
58534;BME280;44109;52.398;7.024;2023-04-07T00:00:31;101196.41;;;8.71;100.00
58534;BME280;44109;52.398;7.024;2023-04-07T00:02:59;101195.34;;;8.76;100.00
58534;BME280;44109;52.398;7.024;2023-04-07T00:05:27;101191.22;;;8.82;100.00
58534;BME280;44109;52.398;7.024;2023-04-07T00:07:54;101192.25;;;8.77;100.00
58534;BME280;44109;52.398;7.024;2023-04-07T00:10:24;101186.00;;;8.80;100.00
58534;BME280;44109;52.398;7.024;2023-04-07T00:12:51;101180.03;;;8.66;100.00
58534;BME280;44109;52.398;7.024;2023-04-07T00:15:19;101197.06;;;8.80;100.00
58534;BME280;44109;52.398;7.024;2023-04-07T00:17:47;101194.19;;;8.89;100.00
58534;BME280;44109;52.398;7.024;2023-04-07T00:20:15;101195.47;;;8.79;100.00
58534;BME280;44109;52.398;7.024;2023-04-07T00:22:42;101197.19;;;8.84;100.00
58534;BME280;44109;52.398;7.024;2023-04-07T00:25:10;101192.56;;;8.88;100.00
58534;BME280;44109;52.398;7.024;2023-04-07T00:27:39;101195.22;;;8.84;100.00
58534;BME280;44109;52.398;7.024;2023-04-07T00:30:07;101186.94;;;8.84;100.00
58534;BME280;44109;52.398;7.024;2023-04-07T00:32:35;101194.97;;;8.89;100.00
58534;BME280;44109;52.398;7.024;2023-04-07T00:35:03;101190.16;;;8.86;100.00
58534;BME280;44109;52.398;7.024;2023-04-07T00:37:32;101192.69;;;8.92;100.00
58534;BME280;44109;52.398;7.024;2023-04-07T00:39:59;101182.78;;;8.91;100.00
58534;BME280;44109;52.398;7.024;2023-04-07T00:42:27;101189.69;;;8.84;100.00
58534;BME280;44109;52.398;7.024;2023-04-07T00:44:56;101189.91;;;8.92;100.00
58534;BME280;44109;52.398;7.024;2023-04-07T00:47:23;101194.28;;;8.93;100.00
58534;BME280;44109;52.398;7.024;2023-04-07T00:49:51;101191.97;;;8.95;100.00
58534;BME280;44109;52.398;7.024;2023-04-07T00:52:19;101190.84;;;8.96;100.00
58534;BME280;44109;52.398;7.024;2023-04-07T00:54:53;101186.44;;;8.95;100.00
58534;BME280;44109;52.398;7.024;2023-04-07T00:57:21;101188.75;;;8.93;100.00
58534;BME280;44109;52.398;7.024;2023-04-07T00:59:51;101181.94;;;8.90;100.00
58534;BME280;44109;52.398;7.024;2023-04-07T01:02:26;101123.38;;;8.48;100.00
58534;BME280;44109;52.398;7.024;2023-04-07T01:05:06;101181.38;;;8.84;100.00
58534;BME280;44109;52.398;7.024;2023-04-07T01:07:46;101185.31;;;8.96;100.00
58534;BME280;44109;52.398;7.024;2023-04-07T01:10:23;101184.13;;;8.97;100.00
58534;BME280;44109;52.398;7.024;2023-04-07T01:13:00;101182.53;;;8.96;100.00
58534;BME280;44109;52.398;7.024;2023-04-07T01:15:32;101171.34;;;8.92;100.00
58534;BME280;44109;52.398;7.024;2023-04-07T01:18:08;101172.28;;;8.96;100.00
58534;BME280;44109;52.398;7.024;2023-04-07T01:20:39;101176.66;;;8.97;100.00
58534;BME280;44109;52.398;7.024;2023-04-07T01:23:14;101177.19;;;9.03;100.00
58534;BME280;44109;52.398;7.024;2023-04-07T01:25:56;101174.22;;;8.96;100.00
58534;BME280;44109;52.398;7.024;2023-04-07T01:28:49;101177.44;;;8.98;100.00
58534;BME280;44109;52.398;7.024;2023-04-07T01:31:32;101187.34;;;8.99;100.00
58534;BME280;44109;52.398;7.024;2023-04-07T01:34:03;101177.19;;;9.03;100.00
58534;BME280;44109;52.398;7.024;2023-04-07T01:36:32;101168.22;;;8.94;100.00
58534;BME280;44109;52.398;7.024;2023-04-07T01:39:00;101183.09;;;9.01;100.00
58534;BME280;44109;52.398;7.024;2023-04-07T01:41:29;101183.91;;;9.02;100.00
58534;BME280;44109;52.398;7.024;2023-04-07T01:43:59;101183.53;;;9.03;100.00
58534;BME280;44109;52.398;7.024;2023-04-07T01:46:29;101185.16;;;9.04;100.00
58534;BME280;44109;52.398;7.024;2023-04-07T01:48:58;101189.19;;;9.07;100.00
58534;BME280;44109;52.398;7.024;2023-04-07T01:51:28;101189.28;;;9.10;100.00
58534;BME280;44109;52.398;7.024;2023-04-07T01:53:58;101178.66;;;9.12;100.00
58534;BME280;44109;52.398;7.024;2023-04-07T01:56:28;101177.88;;;9.12;100.00
58534;BME280;44109;52.398;7.024;2023-04-07T01:58:56;101171.88;;;9.10;100.00
58534;BME280;44109;52.398;7.024;2023-04-07T02:01:23;101177.78;;;9.08;100.00
58534;BME280;44109;52.398;7.024;2023-04-07T02:03:53;101189.19;;;9.07;100.00
58534;BME280;44109;52.398;7.024;2023-04-07T02:06:33;101177.31;;;9.06;100.00
58534;BME280;44109;52.398;7.024;2023-04-07T02:09:06;101186.09;;;9.08;100.00
58534;BME280;44109;52.398;7.024;2023-04-07T02:11:41;101180.19;;;9.10;100.00
58534;BME280;44109;52.398;7.024;2023-04-07T02:14:12;101175.09;;;9.12;100.00
58534;BME280;44109;52.398;7.024;2023-04-07T02:16:43;101179.03;;;9.11;100.00
58534;BME280;44109;52.398;7.024;2023-04-07T02:19:12;101156.13;;;8.98;100.00
58534;BME280;44109;52.398;7.024;2023-04-07T02:21:43;101172.31;;;9.12;100.00
58534;BME280;44109;52.398;7.024;2023-04-07T02:24:12;101173.50;;;9.11;100.00
58534;BME280;44109;52.398;7.024;2023-04-07T02:26:42;101185.97;;;9.05;100.00
58534;BME280;44109;52.398;7.024;2023-04-07T02:29:09;101179.72;;;9.08;100.00
58534;BME280;44109;52.398;7.024;2023-04-07T02:31:37;101188.13;;;9.11;100.00
58534;BME280;44109;52.398;7.024;2023-04-07T02:34:04;101182.97;;;9.10;100.00
58534;BME280;44109;52.398;7.024;2023-04-07T02:36:32;101184.56;;;9.11;100.00
58534;BME280;44109;52.398;7.024;2023-04-07T02:39:01;101184.81;;;9.06;100.00
58534;BME280;44109;52.398;7.024;2023-04-07T02:41:28;101186.88;;;9.09;100.00
58534;BME280;44109;52.398;7.024;2023-04-07T02:43:56;101183.53;;;9.03;100.00
58534;BME280;44109;52.398;7.024;2023-04-07T02:46:24;101191.63;;;9.08;100.00
58534;BME280;44109;52.398;7.024;2023-04-07T02:48:51;101192.41;;;9.09;100.00
58534;BME280;44109;52.398;7.024;2023-04-07T02:51:19;101192.06;;;9.10;100.00
58534;BME280;44109;52.398;7.024;2023-04-07T02:53:46;101190.09;;;9.11;100.00
58534;BME280;44109;52.398;7.024;2023-04-07T02:56:15;101183.75;;;9.10;100.00
58534;BME280;44109;52.398;7.024;2023-04-07T02:58:43;101191.25;;;9.10;100.00
58534;BME280;44109;52.398;7.024;2023-04-07T03:01:11;101192.66;;;9.04;100.00
58534;BME280;44109;52.398;7.024;2023-04-07T03:03:39;101191.63;;;9.08;100.00
58534;BME280;44109;52.398;7.024;2023-04-07T03:06:07;101190.09;;;9.11;100.00
58534;BME280;44109;52.398;7.024;2023-04-07T03:08:34;101196.78;;;9.10;100.00
58534;BME280;44109;52.398;7.024;2023-04-07T03:11:02;101187.81;;;9.01;100.00
58534;BME280;44109;52.398;7.024;2023-04-07T03:13:31;101196.25;;;9.04;100.00
58534;BME280;44109;52.398;7.024;2023-04-07T03:15:59;101197.47;;;9.07;100.00
58534;BME280;44109;52.398;7.024;2023-04-07T03:18:26;101195.88;;;9.06;100.00
58534;BME280;44109;52.398;7.024;2023-04-07T03:20:54;101199.00;;;9.04;100.00
58534;BME280;44109;52.398;7.024;2023-04-07T03:23:21;101206.38;;;9.00;100.00
58534;BME280;44109;52.398;7.024;2023-04-07T03:25:49;101202.47;;;9.01;100.00
58534;BME280;44109;52.398;7.024;2023-04-07T03:28:17;101207.63;;;9.03;100.00
58534;BME280;44109;52.398;7.024;2023-04-07T03:30:46;101203.25;;;9.02;100.00
58534;BME280;44109;52.398;7.024;2023-04-07T03:33:13;101204.06;;;9.02;100.00
58534;BME280;44109;52.398;7.024;2023-04-07T03:35:41;101205.47;;;8.96;100.00
58534;BME280;44109;52.398;7.024;2023-04-07T03:38:09;101196.00;;;8.97;100.00
58534;BME280;44109;52.398;7.024;2023-04-07T03:40:37;101203.25;;;9.02;100.00
58534;BME280;44109;52.398;7.024;2023-04-07T03:43:04;101198.53;;;9.02;100.00
58534;BME280;44109;52.398;7.024;2023-04-07T03:45:37;101202.22;;;9.06;100.00
58534;BME280;44109;52.398;7.024;2023-04-07T03:48:06;101203.16;;;8.98;100.00
58534;BME280;44109;52.398;7.024;2023-04-07T03:50:37;101206.28;;;8.97;100.00
58534;BME280;44109;52.398;7.024;2023-04-07T03:53:05;101201.31;;;8.90;100.00
58534;BME280;44109;52.398;7.024;2023-04-07T03:55:33;101211.13;;;9.00;100.00
58534;BME280;44109;52.398;7.024;2023-04-07T03:58:01;101211.13;;;9.00;100.00
58534;BME280;44109;52.398;7.024;2023-04-07T04:00:29;101212.50;;;8.94;100.00
58534;BME280;44109;52.398;7.024;2023-04-07T04:02:58;101212.16;;;8.95;100.00
58534;BME280;44109;52.398;7.024;2023-04-07T04:05:27;101220.56;;;8.99;100.00
58534;BME280;44109;52.398;7.024;2023-04-07T04:07:55;101222.41;;;8.95;100.00
58534;BME280;44109;52.398;7.024;2023-04-07T04:10:23;101222.19;;;9.00;100.00
58534;BME280;44109;52.398;7.024;2023-04-07T04:12:50;101219.63;;;8.95;100.00
58534;BME280;44109;52.398;7.024;2023-04-07T04:15:18;101216.66;;;9.00;100.00
58534;BME280;44109;52.398;7.024;2023-04-07T04:17:45;101228.41;;;8.97;100.00
58534;BME280;44109;52.398;7.024;2023-04-07T04:20:13;101227.06;;;8.91;100.00
58534;BME280;44109;52.398;7.024;2023-04-07T04:22:42;101226.94;;;8.87;100.00
58534;BME280;44109;52.398;7.024;2023-04-07T04:25:10;101227.50;;;8.80;100.00
58534;BME280;44109;52.398;7.024;2023-04-07T04:27:37;101227.25;;;8.85;100.00
58534;BME280;44109;52.398;7.024;2023-04-07T04:30:06;101210.34;;;8.75;100.00
58534;BME280;44109;52.398;7.024;2023-04-07T04:32:34;101239.28;;;8.77;100.00
58534;BME280;44109;52.398;7.024;2023-04-07T04:35:02;101221.66;;;8.70;100.00
58534;BME280;44109;52.398;7.024;2023-04-07T04:37:30;101237.06;;;8.83;100.00
58534;BME280;44109;52.398;7.024;2023-04-07T04:39:59;101236.41;;;8.86;100.00
58534;BME280;44109;52.398;7.024;2023-04-07T04:42:26;101241.13;;;8.73;100.00
58534;BME280;44109;52.398;7.024;2023-04-07T04:44:56;101232.47;;;8.75;100.00
58534;BME280;44109;52.398;7.024;2023-04-07T04:47:24;101238.56;;;8.80;100.00
58534;BME280;44109;52.398;7.024;2023-04-07T04:49:52;101234.19;;;8.79;100.00
58534;BME280;44109;52.398;7.024;2023-04-07T04:52:19;101239.38;;;8.81;100.00
58534;BME280;44109;52.398;7.024;2023-04-07T04:54:47;101241.34;;;8.80;100.00
58534;BME280;44109;52.398;7.024;2023-04-07T04:57:16;101239.28;;;8.77;100.00
58534;BME280;44109;52.398;7.024;2023-04-07T04:59:43;101209.31;;;8.55;100.00
58534;BME280;44109;52.398;7.024;2023-04-07T05:02:11;101248.13;;;8.83;100.00
58534;BME280;44109;52.398;7.024;2023-04-07T05:04:39;101195.03;;;8.41;100.00
58534;BME280;44109;52.398;7.024;2023-04-07T05:07:06;101262.09;;;8.74;100.00
58534;BME280;44109;52.398;7.024;2023-04-07T05:09:34;101251.94;;;8.78;100.00
58534;BME280;44109;52.398;7.024;2023-04-07T05:12:01;101256.78;;;8.69;100.00
58534;BME280;44109;52.398;7.024;2023-04-07T05:14:31;101258.53;;;8.74;100.00
58534;BME280;44109;52.398;7.024;2023-04-07T05:16:59;101261.16;;;8.82;100.00
58534;BME280;44109;52.398;7.024;2023-04-07T05:19:27;101270.16;;;8.79;100.00
58534;BME280;44109;52.398;7.024;2023-04-07T05:21:54;101266.69;;;8.82;100.00
58534;BME280;44109;52.398;7.024;2023-04-07T05:24:22;101264.63;;;8.79;100.00
58534;BME280;44109;52.398;7.024;2023-04-07T05:26:51;101266.34;;;8.72;100.00
58534;BME280;44109;52.398;7.024;2023-04-07T05:29:19;101263.13;;;8.82;100.00
58534;BME280;44109;52.398;7.024;2023-04-07T05:31:48;101268.75;;;8.85;100.00
58534;BME280;44109;52.398;7.024;2023-04-07T05:34:15;101269.22;;;8.87;100.00
58534;BME280;44109;52.398;7.024;2023-04-07T05:36:43;101271.63;;;8.89;100.00
58534;BME280;44109;52.398;7.024;2023-04-07T05:39:11;101278.44;;;8.92;100.00
58534;BME280;44109;52.398;7.024;2023-04-07T05:41:38;101282.72;;;8.89;100.00
58534;BME280;44109;52.398;7.024;2023-04-07T05:44:06;101283.50;;;8.89;100.00
58534;BME280;44109;52.398;7.024;2023-04-07T05:46:33;101294.13;;;8.87;100.00
58534;BME280;44109;52.398;7.024;2023-04-07T05:49:02;101282.03;;;8.92;100.00
58534;BME280;44109;52.398;7.024;2023-04-07T05:51:30;101293.91;;;8.93;100.00
58534;BME280;44109;52.398;7.024;2023-04-07T05:54:00;101262.53;;;8.76;100.00
58534;BME280;44109;52.398;7.024;2023-04-07T05:56:29;101299.44;;;8.93;100.00
58534;BME280;44109;52.398;7.024;2023-04-07T05:58:57;101303.47;;;8.95;100.00
58534;BME280;44109;52.398;7.024;2023-04-07T06:01:27;101295.19;;;8.95;100.00
58534;BME280;44109;52.398;7.024;2023-04-07T06:03:55;101303.56;;;8.99;100.00
58534;BME280;44109;52.398;7.024;2023-04-07T06:06:25;101307.63;;;9.01;100.00
58534;BME280;44109;52.398;7.024;2023-04-07T06:08:53;101298.28;;;9.06;100.00
58534;BME280;44109;52.398;7.024;2023-04-07T06:11:21;101312.56;;;9.08;100.00
58534;BME280;44109;52.398;7.024;2023-04-07T06:13:48;101313.47;;;9.12;100.00
58534;BME280;44109;52.398;7.024;2023-04-07T06:16:16;101310.03;;;9.15;100.00
58534;BME280;44109;52.398;7.024;2023-04-07T06:18:43;101315.78;;;9.22;100.00
58534;BME280;44109;52.398;7.024;2023-04-07T06:21:11;101305.53;;;9.23;100.00
58534;BME280;44109;52.398;7.024;2023-04-07T06:23:40;101310.03;;;9.27;100.00
58534;BME280;44109;52.398;7.024;2023-04-07T06:26:09;101310.25;;;9.22;100.00
58534;BME280;44109;52.398;7.024;2023-04-07T06:28:38;101316.34;;;9.28;100.00
58534;BME280;44109;52.398;7.024;2023-04-07T06:31:07;101318.88;;;9.33;100.00
58534;BME280;44109;52.398;7.024;2023-04-07T06:33:34;101319.91;;;9.40;100.00
58534;BME280;44109;52.398;7.024;2023-04-07T06:36:02;101321.97;;;9.44;100.00
58534;BME280;44109;52.398;7.024;2023-04-07T06:38:30;101323.94;;;9.43;100.00
58534;BME280;44109;52.398;7.024;2023-04-07T06:40:59;101320.13;;;9.48;100.00
58534;BME280;44109;52.398;7.024;2023-04-07T06:43:27;101312.97;;;9.47;100.00
58534;BME280;44109;52.398;7.024;2023-04-07T06:45:55;101327.47;;;9.56;100.00
58534;BME280;44109;52.398;7.024;2023-04-07T06:48:22;101308.91;;;9.56;100.00
58534;BME280;44109;52.398;7.024;2023-04-07T06:50:50;101327.78;;;9.66;100.00
58534;BME280;44109;52.398;7.024;2023-04-07T06:53:18;101332.63;;;9.70;100.00
58534;BME280;44109;52.398;7.024;2023-04-07T06:55:46;101326.97;;;9.78;100.00
58534;BME280;44109;52.398;7.024;2023-04-07T06:58:15;101336.88;;;9.79;100.00
58534;BME280;44109;52.398;7.024;2023-04-07T07:00:42;101333.16;;;9.87;100.00
58534;BME280;44109;52.398;7.024;2023-04-07T07:03:10;101334.06;;;9.91;100.00
58534;BME280;44109;52.398;7.024;2023-04-07T07:05:38;101335.84;;;9.72;100.00
58534;BME280;44109;52.398;7.024;2023-04-07T07:08:06;101345.31;;;9.83;100.00
58534;BME280;44109;52.398;7.024;2023-04-07T07:10:33;101342.72;;;9.90;100.00
58534;BME280;44109;52.398;7.024;2023-04-07T07:13:01;101347.91;;;10.04;100.00
58534;BME280;44109;52.398;7.024;2023-04-07T07:15:30;101344.41;;;10.07;100.00
58534;BME280;44109;52.398;7.024;2023-04-07T07:17:58;101350.69;;;10.20;100.00
58534;BME280;44109;52.398;7.024;2023-04-07T07:20:25;101353.06;;;10.05;100.00
58534;BME280;44109;52.398;7.024;2023-04-07T07:22:53;101354.97;;;10.17;100.00
58534;BME280;44109;52.398;7.024;2023-04-07T07:25:21;101349.34;;;10.13;100.00
58534;BME280;44109;52.398;7.024;2023-04-07T07:27:51;101360.38;;;10.26;100.00
58534;BME280;44109;52.398;7.024;2023-04-07T07:30:20;101363.47;;;10.36;100.00
58534;BME280;44109;52.398;7.024;2023-04-07T07:32:50;101363.00;;;10.34;100.00
58534;BME280;44109;52.398;7.024;2023-04-07T07:35:20;101344.88;;;10.09;100.00
58534;BME280;44109;52.398;7.024;2023-04-07T07:37:47;101361.09;;;10.23;100.00
58534;BME280;44109;52.398;7.024;2023-04-07T07:40:15;101361.84;;;10.35;100.00
58534;BME280;44109;52.398;7.024;2023-04-07T07:42:43;101362.78;;;10.55;100.00
58534;BME280;44109;52.398;7.024;2023-04-07T07:45:11;101371.16;;;10.43;100.00
58534;BME280;44109;52.398;7.024;2023-04-07T07:47:39;101375.66;;;10.48;100.00
58534;BME280;44109;52.398;7.024;2023-04-07T07:50:09;101371.00;;;10.24;100.00
58534;BME280;44109;52.398;7.024;2023-04-07T07:52:36;101376.72;;;10.43;100.00
58534;BME280;44109;52.398;7.024;2023-04-07T07:55:04;101342.16;;;10.25;100.00
58534;BME280;44109;52.398;7.024;2023-04-07T07:57:32;101376.56;;;10.52;100.00
58534;BME280;44109;52.398;7.024;2023-04-07T08:00:00;101380.44;;;10.63;100.00
58534;BME280;44109;52.398;7.024;2023-04-07T08:02:27;101398.69;;;10.64;100.00
58534;BME280;44109;52.398;7.024;2023-04-07T08:04:56;101386.78;;;10.63;100.00
58534;BME280;44109;52.398;7.024;2023-04-07T08:07:25;101386.16;;;10.70;100.00
58534;BME280;44109;52.398;7.024;2023-04-07T08:09:53;101397.88;;;10.79;100.00
58534;BME280;44109;52.398;7.024;2023-04-07T08:12:21;101399.66;;;10.72;100.00
58534;BME280;44109;52.398;7.024;2023-04-07T08:14:48;101404.34;;;10.83;100.00
58534;BME280;44109;52.398;7.024;2023-04-07T08:17:16;101406.31;;;10.99;100.00
58534;BME280;44109;52.398;7.024;2023-04-07T08:19:43;101399.63;;;11.00;100.00
58534;BME280;44109;52.398;7.024;2023-04-07T08:22:12;101410.88;;;11.07;100.00
58534;BME280;44109;52.398;7.024;2023-04-07T08:24:41;101404.44;;;11.03;100.00
58534;BME280;44109;52.398;7.024;2023-04-07T08:27:08;101414.63;;;10.99;100.00
58534;BME280;44109;52.398;7.024;2023-04-07T08:29:36;101410.28;;;11.13;100.00
58534;BME280;44109;52.398;7.024;2023-04-07T08:32:04;101406.13;;;11.07;100.00
58534;BME280;44109;52.398;7.024;2023-04-07T08:34:31;101418.50;;;11.10;100.00
58534;BME280;44109;52.398;7.024;2023-04-07T08:36:59;101426.03;;;11.09;100.00
58534;BME280;44109;52.398;7.024;2023-04-07T08:39:27;101429.34;;;11.15;100.00
58534;BME280;44109;52.398;7.024;2023-04-07T08:41:56;101431.22;;;11.11;100.00
58534;BME280;44109;52.398;7.024;2023-04-07T08:44:26;101425.66;;;11.11;100.00
58534;BME280;44109;52.398;7.024;2023-04-07T08:46:56;101433.38;;;11.17;100.00
58534;BME280;44109;52.398;7.024;2023-04-07T08:49:27;101421.28;;;11.10;100.00
58534;BME280;44109;52.398;7.024;2023-04-07T08:51:59;101440.78;;;10.98;100.00
58534;BME280;44109;52.398;7.024;2023-04-07T08:54:32;101441.31;;;10.87;100.00
58534;BME280;44109;52.398;7.024;2023-04-07T08:57:01;101446.84;;;10.72;100.00
58534;BME280;44109;52.398;7.024;2023-04-07T08:59:30;101428.47;;;10.67;100.00
58534;BME280;44109;52.398;7.024;2023-04-07T09:01:58;101450.53;;;10.76;100.00
58534;BME280;44109;52.398;7.024;2023-04-07T09:04:26;101447.69;;;10.88;100.00
58534;BME280;44109;52.398;7.024;2023-04-07T09:06:54;101447.25;;;11.02;100.00
58534;BME280;44109;52.398;7.024;2023-04-07T09:09:22;101428.44;;;10.95;100.00
58534;BME280;44109;52.398;7.024;2023-04-07T09:11:49;101429.00;;;11.01;100.00
58534;BME280;44109;52.398;7.024;2023-04-07T09:14:19;101453.91;;;11.13;100.00
58534;BME280;44109;52.398;7.024;2023-04-07T09:16:47;101453.91;;;11.13;100.00
58534;BME280;44109;52.398;7.024;2023-04-07T09:19:15;101459.34;;;11.09;100.00
58534;BME280;44109;52.398;7.024;2023-04-07T09:21:47;101463.56;;;11.35;100.00
58534;BME280;44109;52.398;7.024;2023-04-07T09:24:24;101465.00;;;11.29;100.00
58534;BME280;44109;52.398;7.024;2023-04-07T09:27:11;101465.00;;;11.45;100.00
58534;BME280;44109;52.398;7.024;2023-04-07T09:29:42;101462.94;;;11.41;100.00
58534;BME280;44109;52.398;7.024;2023-04-07T09:32:12;101466.63;;;11.46;100.00
58534;BME280;44109;52.398;7.024;2023-04-07T09:35:01;101467.69;;;11.41;100.00
58534;BME280;44109;52.398;7.024;2023-04-07T09:37:28;101458.28;;;11.30;100.00
58534;BME280;44109;52.398;7.024;2023-04-07T09:39:56;101471.25;;;11.10;100.00
58534;BME280;44109;52.398;7.024;2023-04-07T09:42:24;101473.72;;;10.83;100.00
58534;BME280;44109;52.398;7.024;2023-04-07T09:44:53;101475.16;;;10.77;100.00
58534;BME280;44109;52.398;7.024;2023-04-07T09:47:25;101463.06;;;10.70;100.00
58534;BME280;44109;52.398;7.024;2023-04-07T09:49:55;101470.50;;;10.81;100.00
58534;BME280;44109;52.398;7.024;2023-04-07T09:52:46;101470.00;;;10.91;100.00
58534;BME280;44109;52.398;7.024;2023-04-07T09:55:19;101474.66;;;11.19;100.00
58534;BME280;44109;52.398;7.024;2023-04-07T09:57:48;101481.41;;;11.18;100.00
58534;BME280;44109;52.398;7.024;2023-04-07T10:00:18;101488.72;;;11.10;100.00
58534;BME280;44109;52.398;7.024;2023-04-07T10:02:46;101483.97;;;11.11;100.00
58534;BME280;44109;52.398;7.024;2023-04-07T10:05:16;101486.22;;;11.05;100.00
58534;BME280;44109;52.398;7.024;2023-04-07T10:07:46;101489.38;;;11.20;100.00
58534;BME280;44109;52.398;7.024;2023-04-07T10:10:14;101495.44;;;11.25;100.00
58534;BME280;44109;52.398;7.024;2023-04-07T10:12:42;101491.34;;;11.19;100.00
58534;BME280;44109;52.398;7.024;2023-04-07T10:15:12;101495.34;;;11.22;100.00
58534;BME280;44109;52.398;7.024;2023-04-07T10:17:45;101494.03;;;11.31;100.00
58534;BME280;44109;52.398;7.024;2023-04-07T10:20:16;101497.44;;;11.40;100.00
58534;BME280;44109;52.398;7.024;2023-04-07T10:22:47;101474.94;;;11.30;100.00
58534;BME280;44109;52.398;7.024;2023-04-07T10:25:18;101500.56;;;11.55;100.00
58534;BME280;44109;52.398;7.024;2023-04-07T10:27:50;101507.56;;;11.64;100.00
58534;BME280;44109;52.398;7.024;2023-04-07T10:30:28;101506.94;;;11.55;100.00
58534;BME280;44109;52.398;7.024;2023-04-07T10:32:58;101510.59;;;11.59;100.00
58534;BME280;44109;52.398;7.024;2023-04-07T10:35:27;101507.31;;;11.54;100.00
58534;BME280;44109;52.398;7.024;2023-04-07T10:38:11;101516.97;;;11.44;100.00
58534;BME280;44109;52.398;7.024;2023-04-07T10:40:41;101513.56;;;11.51;100.00
58534;BME280;44109;52.398;7.024;2023-04-07T10:43:09;101507.38;;;11.57;100.00
58534;BME280;44109;52.398;7.024;2023-04-07T10:45:52;101509.63;;;11.52;100.00
58534;BME280;44109;52.398;7.024;2023-04-07T10:48:22;101523.34;;;11.60;100.00
58534;BME280;44109;52.398;7.024;2023-04-07T10:51:13;101529.72;;;11.45;100.00
58534;BME280;44109;52.398;7.024;2023-04-07T10:57:09;101529.50;;;11.69;100.00
58534;BME280;44109;52.398;7.024;2023-04-07T11:02:43;101530.03;;;11.75;100.00
58534;BME280;44109;52.398;7.024;2023-04-07T11:05:22;101527.38;;;11.95;100.00
58534;BME280;44109;52.398;7.024;2023-04-07T11:07:51;101510.34;;;11.64;100.00
58534;BME280;44109;52.398;7.024;2023-04-07T11:10:23;101531.41;;;11.65;100.00
58534;BME280;44109;52.398;7.024;2023-04-07T11:12:59;101536.41;;;11.76;100.00
58534;BME280;44109;52.398;7.024;2023-04-07T11:15:27;101536.72;;;11.86;100.00
58534;BME280;44109;52.398;7.024;2023-04-07T11:18:15;101530.31;;;12.02;100.00
58534;BME280;44109;52.398;7.024;2023-04-07T11:20:47;101543.91;;;12.23;100.00
58534;BME280;44109;52.398;7.024;2023-04-07T11:23:18;101546.63;;;12.38;100.00
58534;BME280;44109;52.398;7.024;2023-04-07T11:25:49;101546.22;;;12.56;100.00
58534;BME280;44109;52.398;7.024;2023-04-07T11:28:18;101550.00;;;12.67;100.00
58534;BME280;44109;52.398;7.024;2023-04-07T11:30:48;101551.19;;;12.66;100.00
58534;BME280;44109;52.398;7.024;2023-04-07T11:33:18;101546.78;;;12.46;100.00
58534;BME280;44109;52.398;7.024;2023-04-07T11:35:50;101545.59;;;12.27;100.00
58534;BME280;44109;52.398;7.024;2023-04-07T11:38:21;101550.00;;;12.12;100.00
58534;BME280;44109;52.398;7.024;2023-04-07T11:40:49;101549.22;;;11.80;100.00
58534;BME280;44109;52.398;7.024;2023-04-07T11:43:19;101551.94;;;11.61;100.00
58534;BME280;44109;52.398;7.024;2023-04-07T11:46:07;101560.88;;;11.70;100.00
58534;BME280;44109;52.398;7.024;2023-04-07T11:48:38;101560.00;;;11.66;100.00
58534;BME280;44109;52.398;7.024;2023-04-07T11:51:16;101560.44;;;11.52;100.00
58534;BME280;44109;52.398;7.024;2023-04-07T11:53:45;101546.19;;;11.38;100.00
58534;BME280;44109;52.398;7.024;2023-04-07T11:56:15;101543.06;;;11.55;100.00
58534;BME280;44109;52.398;7.024;2023-04-07T11:58:46;101565.31;;;11.87;100.00
58534;BME280;44109;52.398;7.024;2023-04-07T12:01:14;101549.06;;;11.73;100.00
58534;BME280;44109;52.398;7.024;2023-04-07T12:03:56;101538.22;;;11.84;100.00
58534;BME280;44109;52.398;7.024;2023-04-07T12:06:30;101565.56;;;12.13;100.00
58534;BME280;44109;52.398;7.024;2023-04-07T12:09:00;101578.97;;;12.27;100.00
58534;BME280;44109;52.398;7.024;2023-04-07T12:11:28;101569.56;;;12.51;100.00
58534;BME280;44109;52.398;7.024;2023-04-07T12:13:56;101577.91;;;12.51;100.00
58534;BME280;44109;52.398;7.024;2023-04-07T12:16:24;101578.28;;;12.50;100.00
58534;BME280;44109;52.398;7.024;2023-04-07T12:18:52;101580.00;;;12.38;100.00
58534;BME280;44109;52.398;7.024;2023-04-07T12:21:20;101579.94;;;12.00;100.00
58534;BME280;44109;52.398;7.024;2023-04-07T12:23:49;101583.75;;;12.11;100.00
58534;BME280;44109;52.398;7.024;2023-04-07T12:26:16;101585.03;;;11.98;100.00
58534;BME280;44109;52.398;7.024;2023-04-07T12:28:44;101585.34;;;12.28;100.00
58534;BME280;44109;52.398;7.024;2023-04-07T12:31:12;101589.28;;;12.62;100.00
58534;BME280;44109;52.398;7.024;2023-04-07T12:33:39;101584.00;;;12.76;100.00
58534;BME280;44109;52.398;7.024;2023-04-07T12:36:07;101589.00;;;13.06;100.00
58534;BME280;44109;52.398;7.024;2023-04-07T12:38:35;101586.06;;;12.99;100.00
58534;BME280;44109;52.398;7.024;2023-04-07T12:41:04;101596.72;;;13.55;100.00
58534;BME280;44109;52.398;7.024;2023-04-07T12:43:31;101598.72;;;13.77;100.00
58534;BME280;44109;52.398;7.024;2023-04-07T12:45:59;101599.25;;;14.09;100.00
58534;BME280;44109;52.398;7.024;2023-04-07T12:48:27;101593.94;;;14.27;100.00
58534;BME280;44109;52.398;7.024;2023-04-07T12:50:54;101591.69;;;14.10;100.00
58534;BME280;44109;52.398;7.024;2023-04-07T12:53:22;101593.28;;;14.11;100.00
58534;BME280;44109;52.398;7.024;2023-04-07T12:55:49;101594.13;;;13.65;100.00
58534;BME280;44109;52.398;7.024;2023-04-07T12:58:18;101605.41;;;13.95;100.00
58534;BME280;44109;52.398;7.024;2023-04-07T13:00:46;101595.88;;;14.23;100.00
58534;BME280;44109;52.398;7.024;2023-04-07T13:03:14;101601.84;;;14.48;100.00